sensor_id;sensor_type;location;lat;lon;timestamp;pressure;altitude;pressure_sealevel;temperature;humidity
51245;BME280;37840;47.562;18.738;2023-05-01T00:00:11;99998.34;;;10.86;67.06
51245;BME280;37840;47.562;18.738;2023-05-01T00:02:38;100001.62;;;10.90;67.19
51245;BME280;37840;47.562;18.738;2023-05-01T00:05:05;99999.53;;;10.95;67.00
51245;BME280;37840;47.562;18.738;2023-05-01T00:07:32;99996.13;;;10.93;66.95
51245;BME280;37840;47.562;18.738;2023-05-01T00:09:58;100001.31;;;10.94;66.29
51245;BME280;37840;47.562;18.738;2023-05-01T00:12:25;99991.00;;;10.90;66.30
51245;BME280;37840;47.562;18.738;2023-05-01T00:14:52;99993.13;;;10.85;66.62
51245;BME280;37840;47.562;18.738;2023-05-01T00:17:18;99986.97;;;10.84;66.58
51245;BME280;37840;47.562;18.738;2023-05-01T00:19:44;99985.34;;;10.81;66.56
51245;BME280;37840;47.562;18.738;2023-05-01T00:22:10;99987.81;;;10.85;67.24
51245;BME280;37840;47.562;18.738;2023-05-01T00:24:36;99987.56;;;10.88;67.08
51245;BME280;37840;47.562;18.738;2023-05-01T00:27:02;99990.56;;;10.83;66.92
51245;BME280;37840;47.562;18.738;2023-05-01T00:29:28;99989.34;;;10.61;66.54
51245;BME280;37840;47.562;18.738;2023-05-01T00:31:54;99993.50;;;10.53;67.68
51245;BME280;37840;47.562;18.738;2023-05-01T00:34:20;99991.06;;;10.50;69.04
51245;BME280;37840;47.562;18.738;2023-05-01T00:36:46;99993.19;;;10.57;69.04
51245;BME280;37840;47.562;18.738;2023-05-01T00:39:12;99990.59;;;10.56;68.59
51245;BME280;37840;47.562;18.738;2023-05-01T00:41:38;99997.41;;;10.47;66.25
51245;BME280;37840;47.562;18.738;2023-05-01T00:44:04;99998.56;;;10.43;66.21
51245;BME280;37840;47.562;18.738;2023-05-01T00:46:31;99997.47;;;10.33;67.44
51245;BME280;37840;47.562;18.738;2023-05-01T00:48:58;100000.78;;;10.36;68.05
51245;BME280;37840;47.562;18.738;2023-05-01T00:51:25;99994.69;;;10.34;67.81
51245;BME280;37840;47.562;18.738;2023-05-01T00:53:54;99994.31;;;10.40;67.34
51245;BME280;37840;47.562;18.738;2023-05-01T00:56:21;99995.06;;;10.43;67.26
51245;BME280;37840;47.562;18.738;2023-05-01T00:58:49;99989.56;;;10.46;66.70
51245;BME280;37840;47.562;18.738;2023-05-01T01:01:21;99994.13;;;10.44;67.14
51245;BME280;37840;47.562;18.738;2023-05-01T01:03:48;99990.56;;;10.43;67.36
51245;BME280;37840;47.562;18.738;2023-05-01T01:11:52;99978.47;;;10.52;67.75
51245;BME280;37840;47.562;18.738;2023-05-01T01:14:35;99984.75;;;10.51;67.77
51245;BME280;37840;47.562;18.738;2023-05-01T01:17:13;99982.16;;;10.36;65.99
51245;BME280;37840;47.562;18.738;2023-05-01T01:22:39;99993.59;;;9.97;67.54
51245;BME280;37840;47.562;18.738;2023-05-01T01:28:03;99991.09;;;9.24;66.00
51245;BME280;37840;47.562;18.738;2023-05-01T01:31:04;99994.22;;;9.45;65.98
51245;BME280;37840;47.562;18.738;2023-05-01T01:34:15;99987.78;;;9.63;67.14
51245;BME280;37840;47.562;18.738;2023-05-01T01:39:48;99987.56;;;9.66;67.66
51245;BME280;37840;47.562;18.738;2023-05-01T01:42:21;99985.75;;;9.67;67.87
51245;BME280;37840;47.562;18.738;2023-05-01T01:44:54;99986.72;;;9.66;67.92
51245;BME280;37840;47.562;18.738;2023-05-01T01:47:25;99989.47;;;9.50;67.04
51245;BME280;37840;47.562;18.738;2023-05-01T01:50:03;99985.28;;;9.60;68.04
51245;BME280;37840;47.562;18.738;2023-05-01T01:52:32;99984.72;;;9.69;68.77
51245;BME280;37840;47.562;18.738;2023-05-01T01:55:04;99975.88;;;9.69;68.75
51245;BME280;37840;47.562;18.738;2023-05-01T01:57:33;99976.63;;;9.71;69.10
51245;BME280;37840;47.562;18.738;2023-05-01T02:00:01;99976.38;;;9.75;69.34
51245;BME280;37840;47.562;18.738;2023-05-01T02:02:27;99983.75;;;9.85;69.43
51245;BME280;37840;47.562;18.738;2023-05-01T02:04:54;99980.13;;;9.86;69.22
51245;BME280;37840;47.562;18.738;2023-05-01T02:07:24;99990.00;;;9.84;69.26
51245;BME280;37840;47.562;18.738;2023-05-01T02:09:52;99987.63;;;9.79;69.36
51245;BME280;37840;47.562;18.738;2023-05-01T02:12:19;99986.03;;;9.76;69.51
51245;BME280;37840;47.562;18.738;2023-05-01T02:14:47;99987.25;;;9.85;69.33
51245;BME280;37840;47.562;18.738;2023-05-01T02:17:14;99988.00;;;9.87;69.28
51245;BME280;37840;47.562;18.738;2023-05-01T02:19:40;99993.78;;;9.79;69.66
51245;BME280;37840;47.562;18.738;2023-05-01T02:22:09;99994.37;;;9.85;69.41
51245;BME280;37840;47.562;18.738;2023-05-01T02:24:36;99991.72;;;9.85;69.24
51245;BME280;37840;47.562;18.738;2023-05-01T02:27:07;99986.19;;;9.88;69.23
51245;BME280;37840;47.562;18.738;2023-05-01T02:29:35;99987.69;;;9.92;69.51
51245;BME280;37840;47.562;18.738;2023-05-01T02:32:02;99987.59;;;9.93;69.56
51245;BME280;37840;47.562;18.738;2023-05-01T02:34:28;99982.19;;;9.95;69.62
51245;BME280;37840;47.562;18.738;2023-05-01T02:36:54;99988.34;;;9.95;69.62
51245;BME280;37840;47.562;18.738;2023-05-01T02:39:20;99988.28;;;9.97;70.07
51245;BME280;37840;47.562;18.738;2023-05-01T02:41:47;99991.78;;;9.97;70.32
51245;BME280;37840;47.562;18.738;2023-05-01T02:44:14;99989.66;;;10.03;70.53
51245;BME280;37840;47.562;18.738;2023-05-01T02:46:42;99986.16;;;10.02;70.35
51245;BME280;37840;47.562;18.738;2023-05-01T02:49:10;99989.47;;;10.06;69.35
51245;BME280;37840;47.562;18.738;2023-05-01T02:51:37;99986.81;;;10.06;70.21
51245;BME280;37840;47.562;18.738;2023-05-01T02:54:03;99993.94;;;10.05;70.69
51245;BME280;37840;47.562;18.738;2023-05-01T02:56:30;99996.03;;;10.00;70.82
51245;BME280;37840;47.562;18.738;2023-05-01T02:58:56;99988.06;;;10.00;70.79
51245;BME280;37840;47.562;18.738;2023-05-01T03:01:22;99995.84;;;10.03;71.10
51245;BME280;37840;47.562;18.738;2023-05-01T03:03:48;99995.19;;;9.99;71.11
51245;BME280;37840;47.562;18.738;2023-05-01T03:06:14;99997.09;;;9.97;71.23
51245;BME280;37840;47.562;18.738;2023-05-01T03:08:39;99994.13;;;10.02;71.24
51245;BME280;37840;47.562;18.738;2023-05-01T03:11:06;99996.28;;;10.10;70.42
51245;BME280;37840;47.562;18.738;2023-05-01T03:13:33;99998.56;;;10.16;70.65
51245;BME280;37840;47.562;18.738;2023-05-01T03:15:59;99999.50;;;10.15;70.88
51245;BME280;37840;47.562;18.738;2023-05-01T03:18:26;100000.25;;;10.17;71.42
51245;BME280;37840;47.562;18.738;2023-05-01T03:20:55;100004.84;;;10.28;71.25
51245;BME280;37840;47.562;18.738;2023-05-01T03:23:22;100001.44;;;10.26;71.32
51245;BME280;37840;47.562;18.738;2023-05-01T03:25:49;100006.66;;;10.27;71.88
51245;BME280;37840;47.562;18.738;2023-05-01T03:28:15;100008.12;;;10.33;71.41
51245;BME280;37840;47.562;18.738;2023-05-01T03:30:41;100005.34;;;10.34;71.51
51245;BME280;37840;47.562;18.738;2023-05-01T03:33:07;100006.00;;;10.38;71.61
51245;BME280;37840;47.562;18.738;2023-05-01T03:35:33;100010.91;;;10.44;71.71
51245;BME280;37840;47.562;18.738;2023-05-01T03:37:59;100007.00;;;10.50;71.52
51245;BME280;37840;47.562;18.738;2023-05-01T03:40:25;100006.13;;;10.49;71.47
51245;BME280;37840;47.562;18.738;2023-05-01T03:42:50;100001.47;;;10.53;71.95
51245;BME280;37840;47.562;18.738;2023-05-01T03:45:16;100007.63;;;10.53;71.91
51245;BME280;37840;47.562;18.738;2023-05-01T03:47:42;100003.91;;;10.56;71.85
51245;BME280;37840;47.562;18.738;2023-05-01T03:50:08;100002.00;;;10.58;71.83
51245;BME280;37840;47.562;18.738;2023-05-01T03:52:35;100001.91;;;10.59;72.03
51245;BME280;37840;47.562;18.738;2023-05-01T03:55:02;100005.97;;;10.65;71.98
51245;BME280;37840;47.562;18.738;2023-05-01T03:57:28;99999.78;;;10.65;72.51
51245;BME280;37840;47.562;18.738;2023-05-01T03:59:54;99997.59;;;10.71;72.83
51245;BME280;37840;47.562;18.738;2023-05-01T04:02:20;100001.41;;;10.80;72.46
51245;BME280;37840;47.562;18.738;2023-05-01T04:04:46;100006.09;;;10.89;72.10
51245;BME280;37840;47.562;18.738;2023-05-01T04:07:14;100007.81;;;10.90;71.90
51245;BME280;37840;47.562;18.738;2023-05-01T04:09:40;100008.66;;;10.91;70.73
51245;BME280;37840;47.562;18.738;2023-05-01T04:12:06;100007.19;;;10.99;70.69
51245;BME280;37840;47.562;18.738;2023-05-01T04:14:32;100009.94;;;11.11;70.81
51245;BME280;37840;47.562;18.738;2023-05-01T04:16:58;100002.38;;;11.17;75.34
51245;BME280;37840;47.562;18.738;2023-05-01T04:19:24;100009.63;;;11.02;77.64
51245;BME280;37840;47.562;18.738;2023-05-01T04:21:50;100002.81;;;11.11;75.90
51245;BME280;37840;47.562;18.738;2023-05-01T04:24:16;99993.66;;;11.15;74.95
51245;BME280;37840;47.562;18.738;2023-05-01T04:26:42;100004.00;;;11.20;74.43
51245;BME280;37840;47.562;18.738;2023-05-01T04:29:08;100006.78;;;11.31;72.80
51245;BME280;37840;47.562;18.738;2023-05-01T04:31:34;100009.00;;;11.37;72.48
51245;BME280;37840;47.562;18.738;2023-05-01T04:34:00;100013.56;;;11.48;71.88
51245;BME280;37840;47.562;18.738;2023-05-01T04:36:26;100011.31;;;11.55;71.70
51245;BME280;37840;47.562;18.738;2023-05-01T04:38:52;100010.47;;;11.67;70.71
51245;BME280;37840;47.562;18.738;2023-05-01T04:41:18;100012.44;;;11.76;70.24
51245;BME280;37840;47.562;18.738;2023-05-01T04:43:44;100011.91;;;11.84;68.92
51245;BME280;37840;47.562;18.738;2023-05-01T04:46:10;100012.53;;;11.88;68.35
51245;BME280;37840;47.562;18.738;2023-05-01T04:48:36;100012.25;;;11.92;68.07
51245;BME280;37840;47.562;18.738;2023-05-01T04:51:02;100010.81;;;11.99;67.76
51245;BME280;37840;47.562;18.738;2023-05-01T04:53:28;100008.81;;;12.03;67.58
51245;BME280;37840;47.562;18.738;2023-05-01T04:55:54;100011.62;;;12.13;66.55
51245;BME280;37840;47.562;18.738;2023-05-01T04:58:20;100011.19;;;12.19;66.01
51245;BME280;37840;47.562;18.738;2023-05-01T05:00:46;100021.62;;;12.22;65.34
51245;BME280;37840;47.562;18.738;2023-05-01T05:03:12;100016.63;;;12.17;65.14
51245;BME280;37840;47.562;18.738;2023-05-01T05:05:38;100014.47;;;12.22;65.25
51245;BME280;37840;47.562;18.738;2023-05-01T05:08:05;100011.13;;;12.32;64.60
51245;BME280;37840;47.562;18.738;2023-05-01T05:10:31;100012.38;;;12.39;64.23
51245;BME280;37840;47.562;18.738;2023-05-01T05:12:57;100016.09;;;12.36;63.67
51245;BME280;37840;47.562;18.738;2023-05-01T05:15:24;100020.16;;;12.42;63.63
51245;BME280;37840;47.562;18.738;2023-05-01T05:17:50;100014.34;;;12.48;63.29
51245;BME280;37840;47.562;18.738;2023-05-01T05:20:16;100016.22;;;12.59;63.06
51245;BME280;37840;47.562;18.738;2023-05-01T05:22:41;100021.09;;;12.65;62.88
51245;BME280;37840;47.562;18.738;2023-05-01T05:25:08;100015.69;;;12.78;62.64
51245;BME280;37840;47.562;18.738;2023-05-01T05:27:34;100012.75;;;12.81;62.92
51245;BME280;37840;47.562;18.738;2023-05-01T05:30:04;100013.78;;;12.91;62.84
51245;BME280;37840;47.562;18.738;2023-05-01T05:32:30;100018.41;;;13.00;62.31
51245;BME280;37840;47.562;18.738;2023-05-01T05:34:57;100014.56;;;13.16;61.43
51245;BME280;37840;47.562;18.738;2023-05-01T05:37:22;100025.72;;;13.21;62.09
51245;BME280;37840;47.562;18.738;2023-05-01T05:39:51;100027.09;;;13.26;61.77
51245;BME280;37840;47.562;18.738;2023-05-01T05:42:17;100021.16;;;13.34;61.81
51245;BME280;37840;47.562;18.738;2023-05-01T05:44:43;100021.59;;;13.17;61.99
51245;BME280;37840;47.562;18.738;2023-05-01T05:47:09;100028.28;;;13.22;60.83
51245;BME280;37840;47.562;18.738;2023-05-01T05:49:35;100031.06;;;13.21;63.02
51245;BME280;37840;47.562;18.738;2023-05-01T05:52:01;100031.44;;;13.27;61.49
51245;BME280;37840;47.562;18.738;2023-05-01T05:54:27;100033.37;;;13.25;61.27
51245;BME280;37840;47.562;18.738;2023-05-01T05:56:53;100030.53;;;13.29;61.58
51245;BME280;37840;47.562;18.738;2023-05-01T05:59:19;100024.69;;;13.35;61.93
51245;BME280;37840;47.562;18.738;2023-05-01T06:01:44;100027.13;;;13.38;63.19
51245;BME280;37840;47.562;18.738;2023-05-01T06:04:10;100034.53;;;13.45;61.54
51245;BME280;37840;47.562;18.738;2023-05-01T06:06:38;100030.87;;;13.58;60.87
51245;BME280;37840;47.562;18.738;2023-05-01T06:09:04;100041.69;;;13.68;60.55
51245;BME280;37840;47.562;18.738;2023-05-01T06:11:30;100038.19;;;13.78;57.93
51245;BME280;37840;47.562;18.738;2023-05-01T06:13:56;100043.75;;;13.86;57.45
51245;BME280;37840;47.562;18.738;2023-05-01T06:16:22;100042.19;;;13.84;57.08
51245;BME280;37840;47.562;18.738;2023-05-01T06:18:48;100040.00;;;13.89;56.69
51245;BME280;37840;47.562;18.738;2023-05-01T06:21:14;100043.25;;;14.04;56.25
51245;BME280;37840;47.562;18.738;2023-05-01T06:23:40;100042.28;;;14.05;54.33
51245;BME280;37840;47.562;18.738;2023-05-01T06:26:06;100043.38;;;14.14;54.01
51245;BME280;37840;47.562;18.738;2023-05-01T06:28:33;100048.22;;;14.20;53.77
51245;BME280;37840;47.562;18.738;2023-05-01T06:30:59;100054.50;;;14.41;53.01
51245;BME280;37840;47.562;18.738;2023-05-01T06:33:25;100045.69;;;14.51;53.68
51245;BME280;37840;47.562;18.738;2023-05-01T06:35:51;100046.03;;;14.68;54.50
51245;BME280;37840;47.562;18.738;2023-05-01T06:38:17;100052.34;;;14.67;55.17
51245;BME280;37840;47.562;18.738;2023-05-01T06:40:43;100049.78;;;14.77;53.78
51245;BME280;37840;47.562;18.738;2023-05-01T06:43:11;100053.34;;;14.87;52.28
51245;BME280;37840;47.562;18.738;2023-05-01T06:45:37;100049.38;;;14.82;50.92
51245;BME280;37840;47.562;18.738;2023-05-01T06:48:05;100049.25;;;14.83;50.96
51245;BME280;37840;47.562;18.738;2023-05-01T06:50:31;100046.00;;;15.01;50.67
51245;BME280;37840;47.562;18.738;2023-05-01T06:52:57;100039.84;;;15.10;49.59
51245;BME280;37840;47.562;18.738;2023-05-01T06:55:25;100049.97;;;15.06;48.00
51245;BME280;37840;47.562;18.738;2023-05-01T06:57:51;100047.44;;;15.26;48.51
51245;BME280;37840;47.562;18.738;2023-05-01T07:00:17;100046.22;;;15.40;48.66
51245;BME280;37840;47.562;18.738;2023-05-01T07:02:44;100049.81;;;15.50;50.12
51245;BME280;37840;47.562;18.738;2023-05-01T07:05:10;100051.84;;;15.58;50.68
51245;BME280;37840;47.562;18.738;2023-05-01T07:07:36;100059.16;;;15.56;49.39
51245;BME280;37840;47.562;18.738;2023-05-01T07:10:03;100051.25;;;15.75;48.80
51245;BME280;37840;47.562;18.738;2023-05-01T07:12:28;100059.06;;;15.88;45.94
51245;BME280;37840;47.562;18.738;2023-05-01T07:14:55;100048.62;;;15.95;45.63
51245;BME280;37840;47.562;18.738;2023-05-01T07:17:24;100052.28;;;15.94;45.20
51245;BME280;37840;47.562;18.738;2023-05-01T07:19:51;100052.62;;;16.10;44.16
51245;BME280;37840;47.562;18.738;2023-05-01T07:22:18;100056.94;;;15.92;45.77
51245;BME280;37840;47.562;18.738;2023-05-01T07:24:44;100064.31;;;15.99;43.32
51245;BME280;37840;47.562;18.738;2023-05-01T07:27:10;100061.09;;;16.05;44.06
51245;BME280;37840;47.562;18.738;2023-05-01T07:29:37;100052.66;;;16.20;42.38
51245;BME280;37840;47.562;18.738;2023-05-01T07:32:03;100055.22;;;16.31;43.50
51245;BME280;37840;47.562;18.738;2023-05-01T07:34:31;100056.66;;;16.55;42.46
51245;BME280;37840;47.562;18.738;2023-05-01T07:36:57;100063.19;;;16.71;41.19
51245;BME280;37840;47.562;18.738;2023-05-01T07:39:23;100053.03;;;16.85;41.65
51245;BME280;37840;47.562;18.738;2023-05-01T07:41:49;100053.84;;;16.66;41.78
51245;BME280;37840;47.562;18.738;2023-05-01T07:44:15;100052.81;;;16.28;42.57
51245;BME280;37840;47.562;18.738;2023-05-01T07:46:41;100061.78;;;16.58;41.74
51245;BME280;37840;47.562;18.738;2023-05-01T07:49:07;100063.31;;;16.60;41.05
51245;BME280;37840;47.562;18.738;2023-05-01T07:51:33;100057.94;;;16.60;42.57
51245;BME280;37840;47.562;18.738;2023-05-01T07:53:59;100049.63;;;16.73;41.94
51245;BME280;37840;47.562;18.738;2023-05-01T07:56:29;100050.75;;;16.80;39.67
51245;BME280;37840;47.562;18.738;2023-05-01T07:58:56;100064.03;;;17.01;39.04
51245;BME280;37840;47.562;18.738;2023-05-01T08:01:22;100053.00;;;16.65;40.49
51245;BME280;37840;47.562;18.738;2023-05-01T08:03:48;100054.44;;;16.89;40.98
51245;BME280;37840;47.562;18.738;2023-05-01T08:06:14;100062.19;;;17.02;40.12
51245;BME280;37840;47.562;18.738;2023-05-01T08:08:40;100059.53;;;17.11;41.62
51245;BME280;37840;47.562;18.738;2023-05-01T08:11:07;100056.22;;;17.27;40.51
51245;BME280;37840;47.562;18.738;2023-05-01T08:13:33;100056.53;;;17.24;39.32
51245;BME280;37840;47.562;18.738;2023-05-01T08:16:00;100052.53;;;17.38;40.79
51245;BME280;37840;47.562;18.738;2023-05-01T08:18:27;100057.31;;;17.44;42.33
51245;BME280;37840;47.562;18.738;2023-05-01T08:20:53;100053.72;;;17.63;40.93
51245;BME280;37840;47.562;18.738;2023-05-01T08:23:19;100049.03;;;17.65;40.09
51245;BME280;37840;47.562;18.738;2023-05-01T08:25:45;100050.78;;;17.57;39.91
51245;BME280;37840;47.562;18.738;2023-05-01T08:28:16;100055.62;;;17.81;40.37
51245;BME280;37840;47.562;18.738;2023-05-01T08:30:43;100053.41;;;17.86;42.46
51245;BME280;37840;47.562;18.738;2023-05-01T08:33:09;100051.97;;;17.82;41.51
51245;BME280;37840;47.562;18.738;2023-05-01T08:35:35;100056.03;;;17.96;42.19
51245;BME280;37840;47.562;18.738;2023-05-01T08:38:01;100057.22;;;17.83;40.45
51245;BME280;37840;47.562;18.738;2023-05-01T08:40:31;100064.09;;;17.96;42.67
51245;BME280;37840;47.562;18.738;2023-05-01T08:43:01;100053.56;;;17.75;42.66
51245;BME280;37840;47.562;18.738;2023-05-01T08:45:28;100059.28;;;17.62;42.09
51245;BME280;37840;47.562;18.738;2023-05-01T08:48:04;100054.88;;;17.51;45.63
51245;BME280;37840;47.562;18.738;2023-05-01T08:50:33;100050.63;;;17.58;40.95
51245;BME280;37840;47.562;18.738;2023-05-01T08:53:01;100051.47;;;17.59;43.22
51245;BME280;37840;47.562;18.738;2023-05-01T08:55:29;100058.31;;;17.81;40.82
51245;BME280;37840;47.562;18.738;2023-05-01T08:57:57;100052.16;;;18.08;43.17
51245;BME280;37840;47.562;18.738;2023-05-01T09:00:24;100049.56;;;18.16;40.77
51245;BME280;37840;47.562;18.738;2023-05-01T09:02:50;100051.06;;;18.01;41.67
51245;BME280;37840;47.562;18.738;2023-05-01T09:05:17;100048.06;;;18.04;39.88
51245;BME280;37840;47.562;18.738;2023-05-01T09:07:44;100051.31;;;18.07;41.97
51245;BME280;37840;47.562;18.738;2023-05-01T09:10:12;100052.25;;;18.16;43.98
51245;BME280;37840;47.562;18.738;2023-05-01T09:12:39;100050.91;;;18.30;43.36
51245;BME280;37840;47.562;18.738;2023-05-01T09:15:06;100051.50;;;18.42;41.66
51245;BME280;37840;47.562;18.738;2023-05-01T09:17:33;100047.59;;;18.36;40.57
51245;BME280;37840;47.562;18.738;2023-05-01T09:20:01;100044.06;;;18.53;41.38
51245;BME280;37840;47.562;18.738;2023-05-01T09:22:30;100037.00;;;18.70;43.09
51245;BME280;37840;47.562;18.738;2023-05-01T09:24:56;100042.91;;;18.74;43.05
51245;BME280;37840;47.562;18.738;2023-05-01T09:27:25;100037.00;;;18.70;41.30
51245;BME280;37840;47.562;18.738;2023-05-01T09:29:51;100037.75;;;18.45;43.99
51245;BME280;37840;47.562;18.738;2023-05-01T09:34:48;100026.81;;;18.46;44.25
51245;BME280;37840;47.562;18.738;2023-05-01T09:37:32;100040.47;;;18.45;44.92
51245;BME280;37840;47.562;18.738;2023-05-01T09:40:08;100024.06;;;18.56;40.33
51245;BME280;37840;47.562;18.738;2023-05-01T09:42:39;100026.84;;;18.64;39.88
51245;BME280;37840;47.562;18.738;2023-05-01T09:45:11;100036.19;;;18.42;43.24
51245;BME280;37840;47.562;18.738;2023-05-01T09:47:40;100022.91;;;17.95;40.92
51245;BME280;37840;47.562;18.738;2023-05-01T09:50:06;100023.00;;;18.03;44.23
51245;BME280;37840;47.562;18.738;2023-05-01T09:52:33;100013.16;;;18.12;40.35
51245;BME280;37840;47.562;18.738;2023-05-01T09:55:16;100019.56;;;18.11;42.87
51245;BME280;37840;47.562;18.738;2023-05-01T09:57:44;100018.03;;;18.26;41.97
51245;BME280;37840;47.562;18.738;2023-05-01T10:00:12;100016.97;;;18.37;39.80
51245;BME280;37840;47.562;18.738;2023-05-01T10:02:42;100014.22;;;18.47;39.38
51245;BME280;37840;47.562;18.738;2023-05-01T10:05:09;100010.66;;;18.46;43.23
51245;BME280;37840;47.562;18.738;2023-05-01T10:07:35;100007.38;;;18.34;40.70
51245;BME280;37840;47.562;18.738;2023-05-01T10:10:17;100008.66;;;18.30;41.51
51245;BME280;37840;47.562;18.738;2023-05-01T10:12:44;100006.81;;;18.13;41.25
51245;BME280;37840;47.562;18.738;2023-05-01T10:15:10;100005.34;;;18.19;40.63
51245;BME280;37840;47.562;18.738;2023-05-01T10:17:38;100004.72;;;18.25;41.41
51245;BME280;37840;47.562;18.738;2023-05-01T10:20:05;100000.19;;;18.25;40.13
51245;BME280;37840;47.562;18.738;2023-05-01T10:22:32;99983.13;;;18.34;39.17
51245;BME280;37840;47.562;18.738;2023-05-01T10:24:59;99985.41;;;18.29;38.63
51245;BME280;37840;47.562;18.738;2023-05-01T10:27:25;99994.66;;;18.27;43.85
51245;BME280;37840;47.562;18.738;2023-05-01T10:29:53;99994.50;;;18.28;43.53
51245;BME280;37840;47.562;18.738;2023-05-01T10:32:19;99988.06;;;18.21;42.19
51245;BME280;37840;47.562;18.738;2023-05-01T10:34:53;99997.91;;;18.30;40.85
51245;BME280;37840;47.562;18.738;2023-05-01T10:37:28;99980.50;;;18.07;44.28
51245;BME280;37840;47.562;18.738;2023-05-01T10:39:55;99992.56;;;18.21;44.46
51245;BME280;37840;47.562;18.738;2023-05-01T10:42:22;99992.69;;;18.47;41.73
51245;BME280;37840;47.562;18.738;2023-05-01T10:44:48;99979.25;;;18.55;41.14
51245;BME280;37840;47.562;18.738;2023-05-01T10:50:07;99978.28;;;18.92;42.59
51245;BME280;37840;47.562;18.738;2023-05-01T10:55:47;99980.56;;;18.87;43.14
51245;BME280;37840;47.562;18.738;2023-05-01T11:09:46;99966.25;;;18.86;42.10
51245;BME280;37840;47.562;18.738;2023-05-01T11:12:57;99959.50;;;18.82;40.31
51245;BME280;37840;47.562;18.738;2023-05-01T11:15:04;99955.59;;;19.03;39.42
51245;BME280;37840;47.562;18.738;2023-05-01T11:20:08;99958.41;;;18.75;41.32
51245;BME280;37840;47.562;18.738;2023-05-01T11:22:36;99956.22;;;18.97;41.25
51245;BME280;37840;47.562;18.738;2023-05-01T11:25:16;99951.47;;;18.90;40.75
51245;BME280;37840;47.562;18.738;2023-05-01T11:27:54;99944.09;;;18.74;41.38
51245;BME280;37840;47.562;18.738;2023-05-01T11:30:21;99941.91;;;18.96;40.71
51245;BME280;37840;47.562;18.738;2023-05-01T11:32:48;99937.81;;;19.18;42.08
51245;BME280;37840;47.562;18.738;2023-05-01T11:35:18;99940.97;;;19.40;42.39
51245;BME280;37840;47.562;18.738;2023-05-01T11:37:44;99931.41;;;19.45;45.12
51245;BME280;37840;47.562;18.738;2023-05-01T11:42:50;99936.66;;;19.21;41.92
51245;BME280;37840;47.562;18.738;2023-05-01T11:45:18;99937.00;;;18.91;41.45
51245;BME280;37840;47.562;18.738;2023-05-01T11:47:44;99930.75;;;18.91;41.65
51245;BME280;37840;47.562;18.738;2023-05-01T11:50:10;99929.91;;;18.90;40.75
51245;BME280;37840;47.562;18.738;2023-05-01T11:52:45;99919.09;;;19.08;37.87
51245;BME280;37840;47.562;18.738;2023-05-01T11:55:11;99924.69;;;19.15;40.04
51245;BME280;37840;47.562;18.738;2023-05-01T11:57:51;99928.66;;;19.37;43.85
51245;BME280;37840;47.562;18.738;2023-05-01T12:00:29;99920.34;;;18.96;40.15
51245;BME280;37840;47.562;18.738;2023-05-01T12:03:02;99923.63;;;19.08;42.60
51245;BME280;37840;47.562;18.738;2023-05-01T12:05:29;99921.34;;;19.21;39.47
51245;BME280;37840;47.562;18.738;2023-05-01T12:10:44;99918.94;;;19.52;38.58
51245;BME280;37840;47.562;18.738;2023-05-01T12:13:12;99922.44;;;19.71;41.64
51245;BME280;37840;47.562;18.738;2023-05-01T12:15:42;99912.00;;;19.84;38.88
51245;BME280;37840;47.562;18.738;2023-05-01T12:18:08;99913.38;;;19.96;36.47
51245;BME280;37840;47.562;18.738;2023-05-01T12:20:42;99902.72;;;19.87;37.52
51245;BME280;37840;47.562;18.738;2023-05-01T12:23:13;99900.00;;;19.70;37.53
51245;BME280;37840;47.562;18.738;2023-05-01T12:25:41;99901.72;;;19.88;39.62
51245;BME280;37840;47.562;18.738;2023-05-01T12:28:12;99899.22;;;20.03;38.32
51245;BME280;37840;47.562;18.738;2023-05-01T12:30:39;99895.34;;;20.05;38.43
51245;BME280;37840;47.562;18.738;2023-05-01T12:33:12;99888.44;;;20.11;36.21
51245;BME280;37840;47.562;18.738;2023-05-01T12:35:39;99879.97;;;20.06;36.46
51245;BME280;37840;47.562;18.738;2023-05-01T12:38:13;99880.50;;;20.17;36.87
51245;BME280;37840;47.562;18.738;2023-05-01T12:40:52;99895.50;;;20.12;38.22
51245;BME280;37840;47.562;18.738;2023-05-01T12:43:21;99879.66;;;20.01;35.40
51245;BME280;37840;47.562;18.738;2023-05-01T12:45:51;99881.97;;;19.79;39.79
51245;BME280;37840;47.562;18.738;2023-05-01T12:48:18;99870.78;;;19.66;40.98
51245;BME280;37840;47.562;18.738;2023-05-01T12:50:45;99876.50;;;19.63;35.97
51245;BME280;37840;47.562;18.738;2023-05-01T12:53:11;99877.16;;;19.56;37.49
51245;BME280;37840;47.562;18.738;2023-05-01T12:58:15;99863.00;;;19.63;43.28
51245;BME280;37840;47.562;18.738;2023-05-01T13:03:09;99849.06;;;19.75;36.58
51245;BME280;37840;47.562;18.738;2023-05-01T13:05:35;99858.66;;;19.70;40.87
51245;BME280;37840;47.562;18.738;2023-05-01T13:08:02;99856.19;;;19.77;38.87
51245;BME280;37840;47.562;18.738;2023-05-01T13:10:29;99843.16;;;19.72;38.30
51245;BME280;37840;47.562;18.738;2023-05-01T13:13:17;99856.00;;;19.86;36.46
51245;BME280;37840;47.562;18.738;2023-05-01T13:15:51;99848.03;;;19.68;39.10
51245;BME280;37840;47.562;18.738;2023-05-01T13:18:21;99847.41;;;19.83;38.21
51245;BME280;37840;47.562;18.738;2023-05-01T13:20:47;99837.25;;;19.68;36.24
51245;BME280;37840;47.562;18.738;2023-05-01T13:23:15;99833.94;;;19.40;37.48
51245;BME280;37840;47.562;18.738;2023-05-01T13:25:45;99830.91;;;19.35;37.02
51245;BME280;37840;47.562;18.738;2023-05-01T13:31:08;99829.44;;;19.49;39.44
51245;BME280;37840;47.562;18.738;2023-05-01T13:33:35;99816.78;;;19.49;38.68
51245;BME280;37840;47.562;18.738;2023-05-01T13:36:01;99827.78;;;19.64;37.58
51245;BME280;37840;47.562;18.738;2023-05-01T13:38:27;99823.34;;;19.55;39.09